Time;durP1;ratioP1;P1;durP2;ratioP2;P2;SDS_P1;SDS_P2;PMS_P1;PMS_P2;Temp;Humidity;BMP_temperature;BMP_pressure;BME280_temperature;BME280_humidity;BME280_pressure;Samples;Min_cycle;Max_cycle;Signal;HPM_P1;HPM_P2
2020/12/23 00:52:50;;;;;;;;;3.50;3.50;19.60;79.60;;;18.59;55.25;102033.75;5095100;27;13234;-68
2020/12/23 00:55:17;;;;;;;;;4.00;4.00;19.30;80.70;;;18.57;55.52;102037.53;5080927;28;9539;-65
2020/12/23 00:57:44;;;;;;;;;6.25;6.25;19.30;81.00;;;18.49;55.40;102039.97;5073779;28;8906;-66
2020/12/23 01:00:11;;;;;;;;;3.00;3.00;19.30;81.00;;;18.43;55.82;102035.97;5080654;28;9490;-64
2020/12/23 01:02:37;;;;;;;;;3.50;3.50;19.30;80.90;;;18.39;55.76;102046.06;5079361;28;8788;-68
2020/12/23 01:05:04;;;;;;;;;6.25;5.75;19.30;80.90;;;18.34;56.02;102040.25;5074558;28;8779;-67
2020/12/23 01:07:31;;;;;;;;;4.00;4.00;19.30;80.90;;;18.32;56.29;102047.53;5074800;28;8872;-68
2020/12/23 01:09:58;;;;;;;;;4.50;4.50;19.30;80.90;;;18.30;55.90;102046.78;5077726;28;8831;-67
2020/12/23 01:12:25;;;;;;;;;5.25;5.25;19.30;80.70;;;18.29;56.32;102045.06;5077258;28;8812;-66
2020/12/23 01:14:51;;;;;;;;;4.00;4.00;19.30;80.70;;;18.28;55.94;102053.22;5068253;28;8772;-67
2020/12/23 01:17:18;;;;;;;;;4.00;4.00;19.30;80.80;;;18.30;56.56;102049.47;5062902;28;8837;-63
2020/12/23 01:19:45;;;;;;;;;3.25;3.25;19.30;81.20;;;18.27;56.52;102057.75;5064146;28;8856;-64
2020/12/23 01:22:12;;;;;;;;;7.50;7.50;19.20;81.00;;;18.27;56.25;102054.19;5071210;28;8826;-64
2020/12/23 01:24:39;;;;;;;;;6.25;6.25;19.20;80.80;;;18.30;56.17;102062.00;5068128;28;8837;-62
2020/12/23 01:27:05;;;;;;;;;7.50;6.75;19.10;81.40;;;18.32;55.85;102062.69;5070305;28;8778;-62
2020/12/23 01:29:32;;;;;;;;;8.25;6.00;19.00;81.40;;;18.33;55.56;102067.94;5067479;28;8783;-61
2020/12/23 01:31:59;;;;;;;;;5.25;4.25;19.00;81.30;;;18.34;60.63;102066.13;5061209;28;8830;-61
2020/12/23 01:34:26;;;;;;;;;10.00;9.50;19.10;85.00;;;18.35;59.41;102067.84;5064286;28;8804;-61
2020/12/23 01:36:52;;;;;;;;;7.25;5.75;19.10;84.30;;;18.34;59.20;102075.00;5064338;28;8787;-61
2020/12/23 01:39:19;;;;;;;;;9.75;7.50;19.10;84.30;;;18.35;58.18;102066.00;5080333;28;8803;-60
2020/12/23 01:41:46;;;;;;;;;7.25;4.75;19.10;84.10;;;18.36;57.53;102056.16;5072979;28;8796;-61
2020/12/23 01:44:13;;;;;;;;;3.75;3.75;19.10;83.70;;;18.37;57.90;102056.03;5069596;28;8811;-61
2020/12/23 01:46:42;;;;;;;;;5.00;4.75;19.10;83.50;;;18.38;57.23;102051.53;5068302;28;8783;-61
2020/12/23 01:49:09;;;;;;;;;4.50;4.25;19.10;83.40;;;18.37;57.37;102050.69;5081442;28;8829;-62
2020/12/23 01:51:37;;;;;;;;;3.75;2.25;19.10;83.50;;;18.39;57.35;102051.44;5062624;28;8888;-60
2020/12/23 01:54:04;;;;;;;;;6.25;5.75;19.10;83.50;;;18.39;57.07;102053.22;5076113;28;8809;-59
2020/12/23 01:56:32;;;;;;;;;5.75;5.00;19.10;82.80;;;18.40;56.66;102062.97;5076340;28;8813;-59
2020/12/23 01:58:59;;;;;;;;;9.75;8.25;19.10;82.50;;;18.37;56.08;102052.53;5081678;28;11191;-60
2020/12/23 02:01:30;;;;;;;;;5.00;4.75;19.00;81.90;;;18.35;55.53;102057.13;5026800;28;11528;-60
2020/12/23 02:03:57;;;;;;;;;5.00;5.00;19.00;81.60;;;18.35;54.89;102071.34;5015595;28;8784;-60
2020/12/23 02:06:24;;;;;;;;;5.00;5.00;18.90;81.10;;;18.34;54.86;102063.44;5010888;28;8923;-60
2020/12/23 02:08:54;;;;;;;;;5.00;5.00;18.90;80.00;;;18.32;54.73;102055.56;5009675;28;9555;-60
2020/12/23 02:11:21;;;;;;;;;5.75;5.50;18.90;80.70;;;18.32;54.18;102060.91;5011540;28;8919;-60
2020/12/23 02:13:48;;;;;;;;;2.50;1.75;18.90;80.60;;;18.34;54.25;102058.09;5013852;28;8765;-59
2020/12/23 02:16:14;;;;;;;;;6.75;5.00;19.20;79.70;;;18.34;54.05;102055.41;5017627;28;8794;-59
2020/12/23 02:18:43;;;;;;;;;7.50;5.25;19.60;77.70;;;18.36;53.67;102048.97;5014643;28;8811;-58
2020/12/23 02:21:11;;;;;;;;;4.75;4.00;19.80;77.00;;;18.41;53.41;102062.00;5015043;28;8851;-59
2020/12/23 02:23:38;;;;;;;;;5.25;5.25;19.90;76.30;;;18.44;53.23;102056.38;5014923;28;8870;-59
2020/12/23 02:26:05;;;;;;;;;3.75;3.75;20.00;76.10;;;18.47;53.33;102063.31;5014526;28;8812;-59
2020/12/23 02:28:32;;;;;;;;;5.75;5.00;20.00;76.10;;;18.50;52.92;102066.63;5014763;28;8789;-59
2020/12/23 02:31:04;;;;;;;;;7.25;6.50;20.00;76.00;;;18.54;52.81;102073.41;5016109;28;8851;-59
2020/12/23 02:33:31;;;;;;;;;5.00;5.00;20.00;76.10;;;18.55;52.80;102068.94;5013850;28;8796;-59
2020/12/23 02:35:58;;;;;;;;;4.00;4.00;20.00;75.90;;;18.55;52.81;102068.94;5008558;28;8781;-59
2020/12/23 02:38:25;;;;;;;;;7.00;5.50;19.90;75.90;;;18.55;52.99;102077.81;5013279;28;8824;-59
2020/12/23 02:40:52;;;;;;;;;5.75;5.25;19.90;76.10;;;18.54;52.71;102075.25;5011833;28;8854;-59
2020/12/23 02:43:18;;;;;;;;;6.25;6.25;19.90;76.20;;;18.53;53.19;102085.09;5034031;28;8785;-58
2020/12/23 02:45:45;;;;;;;;;10.25;10.25;19.90;76.00;;;18.51;52.88;102089.72;5016328;28;8819;-59
2020/12/23 02:48:12;;;;;;;;;4.50;4.50;19.90;76.50;;;18.50;52.79;102084.50;5010760;28;8816;-58
2020/12/23 02:50:39;;;;;;;;;4.00;4.00;19.80;76.50;;;18.51;52.96;102080.84;5011391;28;8804;-58
2020/12/23 02:53:05;;;;;;;;;6.75;5.75;19.80;76.60;;;18.48;52.62;102081.94;5014237;28;8809;-59
2020/12/23 02:55:32;;;;;;;;;7.67;7.00;19.80;76.80;;;18.47;52.81;102088.28;5013822;28;8879;-58
2020/12/23 02:57:59;;;;;;;;;5.25;5.25;19.70;76.70;;;18.44;52.61;102086.69;5014505;28;8813;-58
2020/12/23 03:00:26;;;;;;;;;5.00;5.00;19.70;76.70;;;18.42;52.73;102080.59;5014941;28;8778;-58
2020/12/23 03:02:53;;;;;;;;;6.75;6.75;19.70;76.50;;;18.43;52.60;102089.47;5005323;28;8949;-59
2020/12/23 03:05:19;;;;;;;;;6.00;6.00;19.60;76.60;;;18.40;52.42;102103.94;5000117;28;9501;-58
2020/12/23 03:07:46;;;;;;;;;7.25;6.75;19.60;76.40;;;18.40;52.47;102103.09;5009473;28;8832;-59
2020/12/23 03:10:13;;;;;;;;;7.50;5.75;19.60;76.20;;;18.39;52.62;102110.28;5010654;28;8844;-58
2020/12/23 03:12:40;;;;;;;;;9.00;6.75;19.60;76.40;;;18.38;52.26;102105.88;5013104;28;8827;-58
2020/12/23 03:15:07;;;;;;;;;5.00;4.00;19.60;76.20;;;18.37;52.48;102114.91;5011820;28;8862;-57
2020/12/23 03:17:33;;;;;;;;;8.50;8.50;19.50;76.30;;;18.37;52.33;102114.06;5012915;28;8816;-59
2020/12/23 03:20:00;;;;;;;;;5.50;5.50;19.50;76.40;;;18.37;52.47;102111.38;5015473;28;8816;-55
2020/12/23 03:22:27;;;;;;;;;7.00;6.25;19.50;76.40;;;18.38;52.17;102115.75;5013175;28;8788;-59
2020/12/23 03:24:54;;;;;;;;;5.00;5.00;19.50;76.40;;;18.36;52.27;102120.34;5014110;28;8827;-59
2020/12/23 03:27:21;;;;;;;;;8.50;6.50;19.50;76.40;;;18.35;52.44;102122.19;5015513;28;8788;-58
2020/12/23 03:29:47;;;;;;;;;7.00;7.00;19.50;76.40;;;18.35;52.36;102114.16;5015827;28;8798;-59
2020/12/23 03:32:14;;;;;;;;;6.50;6.50;19.50;76.50;;;18.35;52.51;102124.88;5013351;28;8852;-59
2020/12/23 03:34:41;;;;;;;;;7.75;7.75;19.50;76.50;;;18.34;52.42;102130.31;5013077;28;8856;-58
2020/12/23 03:37:08;;;;;;;;;1.75;1.75;19.40;76.50;;;18.27;52.77;102139.78;5009905;28;8819;-58
2020/12/23 03:39:35;;;;;;;;;5.75;5.00;19.40;76.40;;;18.29;52.62;102144.03;5009390;28;8789;-59
2020/12/23 03:42:01;;;;;;;;;8.00;7.50;19.40;76.50;;;18.36;52.81;102145.28;5010798;28;9614;-59
2020/12/23 03:44:28;;;;;;;;;5.00;5.00;19.60;76.30;;;18.48;52.48;102140.81;5012581;28;8806;-58
2020/12/23 03:46:55;;;;;;;;;5.75;5.00;19.80;75.80;;;18.61;52.06;102146.06;5013932;28;8854;-58
2020/12/23 03:49:22;;;;;;;;;4.25;4.25;20.00;75.40;;;18.74;51.90;102135.22;5012556;28;8792;-59
2020/12/23 03:51:49;;;;;;;;;4.00;4.00;20.10;75.20;;;18.85;51.49;102148.63;5011412;28;8840;-58
2020/12/23 03:54:15;;;;;;;;;3.00;3.00;20.20;74.80;;;18.99;51.52;102158.25;5006529;28;8807;-58
2020/12/23 03:56:42;;;;;;;;;3.75;3.75;20.30;74.60;;;19.08;50.95;102157.50;5011090;28;8817;-58
2020/12/23 03:59:09;;;;;;;;;4.00;4.00;20.40;74.50;;;19.19;50.94;102167.38;5014017;28;8884;-58
2020/12/23 04:01:36;;;;;;;;;3.00;3.00;20.50;74.30;;;19.28;50.59;102172.84;5020052;28;8823;-58
2020/12/23 04:04:02;;;;;;;;;3.00;3.00;20.60;74.10;;;19.31;50.45;102171.75;5011232;28;8784;-59
2020/12/23 04:06:29;;;;;;;;;3.00;3.00;20.60;73.90;;;19.28;50.77;102170.19;5012378;28;8781;-58
2020/12/23 04:08:56;;;;;;;;;2.25;2.00;20.50;74.10;;;19.21;50.45;102179.69;5012634;28;8854;-59
2020/12/23 04:11:23;;;;;;;;;3.00;3.00;20.40;74.70;;;19.14;50.07;102183.81;5012278;28;8825;-58
2020/12/23 04:13:50;;;;;;;;;3.00;3.00;20.20;74.10;;;19.13;50.45;102190.13;5013358;28;8792;-59
2020/12/23 04:16:16;;;;;;;;;2.50;2.50;20.20;74.40;;;19.16;50.31;102189.03;5010738;28;9539;-59
2020/12/23 04:18:43;;;;;;;;;4.00;3.00;20.30;74.30;;;19.25;50.08;102191.00;5012745;28;8812;-58
2020/12/23 04:21:10;;;;;;;;;3.00;2.00;20.40;74.10;;;19.27;50.29;102192.56;5013368;28;8796;-58
2020/12/23 04:23:37;;;;;;;;;2.75;2.75;20.50;73.80;;;19.22;50.27;102189.41;5013308;28;9545;-58
2020/12/23 04:26:04;;;;;;;;;2.00;2.00;20.50;74.10;;;19.17;50.11;102196.97;5012441;28;8936;-58
2020/12/23 04:28:30;;;;;;;;;2.00;2.00;20.40;73.50;;;19.16;50.21;102195.28;5011243;28;8854;-58
2020/12/23 04:30:57;;;;;;;;;2.75;2.75;20.40;73.80;;;19.21;50.24;102201.13;5012526;28;8824;-59
2020/12/23 04:33:24;;;;;;;;;1.00;1.00;20.40;73.70;;;19.20;50.11;102199.38;5010862;28;8820;-58
2020/12/23 04:35:51;;;;;;;;;2.00;2.00;20.50;73.70;;;19.17;50.22;102198.78;5008917;28;8897;-58
2020/12/23 04:38:17;;;;;;;;;2.40;2.40;20.40;74.20;;;19.15;50.51;102195.38;5008000;28;8839;-58
2020/12/23 04:40:45;;;;;;;;;2.00;2.00;20.30;74.70;;;19.16;50.10;102197.94;5012437;28;8895;-58
2020/12/23 04:43:13;;;;;;;;;3.00;3.00;20.30;73.90;;;19.25;50.19;102207.91;5012646;28;8799;-59
2020/12/23 04:45:40;;;;;;;;;2.00;1.80;20.40;73.90;;;19.33;50.08;102204.59;5011194;28;8820;-58
2020/12/23 04:48:12;;;;;;;;;2.20;2.20;20.60;73.60;;;19.34;49.83;102200.97;5011438;28;8808;-58
2020/12/23 04:50:43;;;;;;;;;2.20;2.20;20.60;73.50;;;19.32;49.61;102215.47;5015448;28;8773;-58
2020/12/23 04:53:11;;;;;;;;;2.40;2.40;20.50;73.50;;;19.29;49.08;102209.38;5008040;28;8810;-58
2020/12/23 04:55:41;;;;;;;;;1.20;1.20;20.40;73.00;;;19.25;49.76;102209.75;5012728;28;8788;-58
2020/12/23 04:58:10;;;;;;;;;2.75;2.75;20.40;73.80;;;19.31;49.84;102211.94;5012836;28;8823;-58
2020/12/23 05:00:37;;;;;;;;;2.40;2.40;20.50;73.80;;;19.34;49.86;102210.84;5009288;28;8824;-58
2020/12/23 05:03:04;;;;;;;;;2.00;2.00;20.50;74.20;;;19.33;49.72;102214.47;5007771;28;8816;-59
2020/12/23 05:05:31;;;;;;;;;1.00;1.00;20.50;73.50;;;19.27;49.60;102214.00;5012709;28;8811;-59
2020/12/23 05:07:58;;;;;;;;;3.00;3.00;20.40;73.60;;;19.20;49.60;102207.44;5011319;28;8817;-58
2020/12/23 05:10:28;;;;;;;;;3.00;3.00;20.30;73.40;;;19.19;50.07;102211.09;5010004;28;9534;-59
2020/12/23 05:12:59;;;;;;;;;2.50;2.50;20.30;73.70;;;19.24;49.65;102211.56;5007629;28;8906;-58
2020/12/23 05:15:25;;;;;;;;;3.00;2.00;20.40;73.60;;;19.25;49.78;102204.38;5013865;28;8777;-59
2020/12/23 05:17:52;;;;;;;;;2.50;2.50;20.40;73.60;;;19.23;49.64;102217.91;5011169;28;8792;-58
2020/12/23 05:20:19;;;;;;;;;2.00;2.00;20.40;73.40;;;19.19;49.51;102210.25;5004122;28;8869;-58
2020/12/23 05:22:51;;;;;;;;;3.00;3.00;20.30;72.80;;;19.18;49.66;102203.16;5009210;28;8835;-59
2020/12/23 05:25:18;;;;;;;;;2.00;2.00;20.30;73.20;;;19.24;49.67;102202.69;5010596;28;8776;-58
2020/12/23 05:27:49;;;;;;;;;3.00;3.00;20.40;73.20;;;19.26;49.83;102201.59;5011061;28;8800;-59
2020/12/23 05:30:19;;;;;;;;;3.50;3.00;20.40;73.30;;;19.22;49.75;102202.81;5010805;28;8804;-58
2020/12/23 05:32:47;;;;;;;;;3.00;3.00;20.40;73.60;;;19.17;49.80;102196.97;5009476;28;8939;-58
2020/12/23 05:35:15;;;;;;;;;3.00;3.00;20.40;73.20;;;19.15;49.40;102201.59;5007497;28;8836;-58
2020/12/23 05:37:43;;;;;;;;;3.00;3.00;20.30;73.00;;;19.20;49.45;102206.56;5010847;28;8784;-59
2020/12/23 05:40:11;;;;;;;;;2.00;2.00;20.40;73.70;;;19.22;49.56;102197.44;5013944;28;8815;-59
2020/12/23 05:42:40;;;;;;;;;3.00;3.00;20.40;73.00;;;19.22;49.70;102199.28;5012988;28;8808;-58
2020/12/23 05:45:07;;;;;;;;;3.00;2.50;20.40;73.30;;;19.17;48.99;102191.59;5016524;28;9465;-59
2020/12/23 05:47:36;;;;;;;;;2.50;2.50;20.40;72.30;;;19.14;49.28;102191.84;5016425;28;8792;-58
2020/12/23 05:50:10;;;;;;;;;3.75;3.00;20.30;72.80;;;19.21;49.26;102195.75;5015660;28;8805;-59
2020/12/23 05:52:37;;;;;;;;;3.00;3.00;20.40;72.80;;;19.23;49.29;102201.84;5016354;28;8843;-59
2020/12/23 05:55:16;;;;;;;;;3.00;3.00;20.40;73.00;;;19.19;49.26;102184.31;5015329;28;9498;-59
2020/12/23 05:57:44;;;;;;;;;3.00;3.00;20.40;73.00;;;19.17;48.64;102185.41;5011737;28;8915;-59
2020/12/23 06:00:11;;;;;;;;;2.00;2.00;20.40;72.40;;;19.15;49.44;102184.66;5009863;28;8816;-59
2020/12/23 06:03:37;;;;;;;;;3.00;2.00;20.30;72.90;;;19.26;49.43;102184.66;5015454;28;8816;-60
2020/12/23 06:06:05;;;;;;;;;3.00;3.00;20.40;72.80;;;19.27;49.82;102184.53;4990016;28;8832;-59
2020/12/23 06:08:35;;;;;;;;;3.50;3.00;20.50;72.60;;;19.24;49.88;102187.47;5008443;28;8873;-60
2020/12/23 06:11:33;;;;;;;;;2.50;2.25;20.50;73.20;;;19.22;50.40;102184.03;5013919;28;8818;-65
2020/12/23 06:14:09;;;;;;;;;3.00;2.25;20.40;73.40;;;19.21;49.90;102184.16;5012519;28;8838;-61
2020/12/23 06:16:45;;;;;;;;;3.00;3.00;20.40;73.30;;;19.19;49.90;102176.25;5011316;28;8832;-61
2020/12/23 06:19:37;;;;;;;;;2.00;2.00;20.40;73.30;;;19.18;50.03;102182.56;5014334;28;8897;-60
2020/12/23 06:22:07;;;;;;;;;5.00;2.25;20.40;73.40;;;19.17;50.30;102190.75;5010305;28;8893;-60
2020/12/23 06:24:36;;;;;;;;;2.25;2.25;20.40;73.60;;;19.14;50.39;102186.50;5012590;28;8776;-60
2020/12/23 06:27:06;;;;;;;;;1.50;1.50;20.30;73.60;;;19.14;50.06;102189.19;5014655;28;8909;-61
2020/12/23 06:29:40;;;;;;;;;2.75;2.00;20.30;73.60;;;19.12;50.17;102185.75;5008817;28;8784;-60
2020/12/23 06:32:11;;;;;;;;;3.75;3.00;20.30;73.70;;;19.12;50.21;102188.44;5011624;28;8840;-61
2020/12/23 06:34:40;;;;;;;;;1.75;1.75;20.30;73.70;;;19.12;50.17;102188.44;5012165;28;8818;-60
2020/12/23 06:37:28;;;;;;;;;2.00;2.00;20.30;73.70;;;19.08;50.34;102185.16;5014543;28;8800;-61
2020/12/23 06:39:56;;;;;;;;;2.75;2.75;20.30;73.80;;;19.10;50.26;102185.03;5014241;28;8781;-60
2020/12/23 06:42:26;;;;;;;;;2.00;2.00;20.30;73.70;;;19.08;50.58;102182.50;5012701;28;9454;-61
2020/12/23 06:44:56;;;;;;;;;2.00;2.00;20.30;73.80;;;19.08;50.24;102185.16;5010477;28;8839;-61
2020/12/23 06:47:25;;;;;;;;;2.25;2.25;20.30;73.70;;;19.05;50.23;102180.03;5010432;28;8862;-60
2020/12/23 06:49:58;;;;;;;;;2.00;2.00;20.20;73.70;;;19.05;50.39;102180.03;5011982;28;9004;-60
2020/12/23 06:52:30;;;;;;;;;2.00;2.00;20.30;73.70;;;19.06;50.41;102191.63;5009649;28;9328;-61
2020/12/23 06:55:02;;;;;;;;;2.00;2.00;20.20;73.60;;;19.04;50.46;102188.22;5013815;28;8836;-61
2020/12/23 06:57:38;;;;;;;;;2.00;2.00;20.20;73.70;;;19.02;50.04;102193.66;5012927;28;8788;-61
2020/12/23 07:00:32;;;;;;;;;2.25;1.50;20.20;73.60;;;19.02;50.27;102182.97;5013064;28;8808;-61
2020/12/23 07:03:02;;;;;;;;;3.00;2.75;20.20;73.70;;;19.01;50.33;102191.13;5008112;28;8841;-62
2020/12/23 07:05:40;;;;;;;;;1.00;1.00;20.30;73.80;;;19.00;50.27;102187.59;5006834;28;8792;-61
2020/12/23 07:08:12;;;;;;;;;1.25;1.25;20.20;73.60;;;19.00;50.42;102184.06;5007719;28;8831;-59
2020/12/23 07:10:49;;;;;;;;;1.00;1.00;20.20;73.70;;;18.99;50.45;102193.09;5010363;28;8808;-61
2020/12/23 07:13:19;;;;;;;;;1.50;1.50;20.20;73.70;;;18.98;50.75;102192.22;5011254;28;8881;-61
2020/12/23 07:15:59;;;;;;;;;1.00;1.00;20.20;73.70;;;18.97;50.32;102185.16;5008877;28;8812;-61
2020/12/23 07:18:30;;;;;;;;;1.00;1.00;20.20;73.70;;;18.98;50.58;102188.69;5010957;28;8826;-61
2020/12/23 07:21:06;;;;;;;;;1.00;1.00;20.20;73.80;;;18.95;50.47;102183.56;5011766;28;8804;-62
2020/12/23 07:23:35;;;;;;;;;1.00;1.00;20.20;73.70;;;18.96;50.63;102188.81;5010695;28;8812;-61
2020/12/23 07:26:07;;;;;;;;;1.25;1.25;20.20;73.80;;;18.95;50.66;102191.59;5011553;28;8800;-60
2020/12/23 07:28:39;;;;;;;;;5.00;2.00;20.20;73.80;;;18.93;50.51;102190.88;5012592;28;8808;-60
2020/12/23 07:31:08;;;;;;;;;2.00;2.00;20.20;73.90;;;18.93;50.72;102197.09;5010501;28;8832;-61
2020/12/23 07:33:42;;;;;;;;;1.75;1.00;20.20;73.90;;;18.94;50.69;102205.97;5012111;28;8815;-60
2020/12/23 07:36:09;;;;;;;;;1.00;1.00;20.20;73.80;;;18.93;50.61;102204.25;5013356;28;8819;-60
2020/12/23 07:38:39;;;;;;;;;1.50;1.00;20.20;73.90;;;18.91;50.54;102201.72;5010106;28;8812;-61
2020/12/23 07:41:06;;;;;;;;;2.75;2.75;20.10;73.80;;;18.91;50.69;102211.59;5011850;28;8816;-60
2020/12/23 07:43:33;;;;;;;;;2.00;2.00;20.10;73.80;;;18.92;50.74;102216.81;5011694;28;8816;-60
2020/12/23 07:46:00;;;;;;;;;1.75;1.75;20.10;73.90;;;18.90;50.75;102209.88;5009916;28;9606;-60
2020/12/23 07:48:28;;;;;;;;;2.00;2.00;20.10;74.00;;;18.88;50.55;102204.66;5005119;28;9481;-58
2020/12/23 07:50:57;;;;;;;;;3.50;1.75;20.10;73.70;;;18.85;50.52;102203.06;5010905;28;8880;-57
2020/12/23 07:53:29;;;;;;;;;2.00;2.00;20.10;73.60;;;18.87;50.32;102211.81;5013044;28;8910;-57
2020/12/23 07:57:25;;;;;;;;;1.75;1.75;20.10;73.30;;;18.83;50.18;102205.00;5083722;27;14132;-60
2020/12/23 07:59:52;;;;;;;;;1.25;1.00;20.20;73.20;;;18.82;50.13;102208.63;5067035;28;8809;-57
2020/12/23 08:02:19;;;;;;;;;1.00;0.50;20.30;73.30;;;18.83;50.30;102198.81;5063493;28;9557;-57
2020/12/23 08:04:46;;;;;;;;;3.50;1.50;20.00;73.60;;;18.82;50.09;102203.28;5060459;28;8903;-57
2020/12/23 08:07:25;;;;;;;;;3.50;3.50;20.10;72.70;;;18.83;52.21;102202.31;5074558;28;8788;-57
2020/12/23 08:09:52;;;;;;;;;3.00;2.00;20.10;74.60;;;18.85;51.30;102205.75;5076606;28;8941;-57
2020/12/23 08:12:22;;;;;;;;;2.00;1.75;20.10;74.30;;;18.85;51.21;102202.19;5064484;28;8789;-56
2020/12/23 08:14:49;;;;;;;;;4.75;2.75;19.80;74.50;;;18.81;51.10;102198.06;5063689;28;8835;-58
2020/12/23 08:17:23;;;;;;;;;2.25;1.75;20.10;74.00;;;18.79;50.87;102191.97;5057028;28;8802;-59
2020/12/23 08:20:22;;;;;;;;;1.00;1.00;20.10;74.20;;;18.75;50.54;102195.81;5064739;28;8814;-59
2020/12/23 08:22:49;;;;;;;;;1.50;1.50;20.00;73.90;;;18.73;50.47;102197.78;5034099;28;9512;-59
2020/12/23 08:25:18;;;;;;;;;4.25;4.25;20.00;74.10;;;18.69;50.73;102193.63;5055135;28;8901;-59
2020/12/23 08:27:50;;;;;;;;;4.25;2.75;19.90;74.20;;;18.66;50.77;102189.38;5069132;28;9553;-59
2020/12/23 08:30:29;;;;;;;;;3.00;2.00;19.50;74.00;;;18.64;50.53;102188.63;5068631;28;8806;-59
2020/12/23 08:33:16;;;;;;;;;2.50;1.00;19.60;74.00;;;18.59;50.97;102185.47;5082020;28;8780;-59
2020/12/23 08:35:46;;;;;;;;;2.00;1.25;19.60;74.30;;;18.58;51.14;102198.00;5059897;28;8953;-60
2020/12/23 08:38:24;;;;;;;;;1.00;1.00;19.60;74.50;;;18.56;50.90;102191.06;5064608;28;8785;-60
2020/12/23 08:40:57;;;;;;;;;1.00;1.00;19.60;74.50;;;18.50;51.30;102187.03;5050392;28;8767;-59
2020/12/23 08:43:31;;;;;;;;;2.00;1.25;19.50;74.60;;;18.47;51.26;102181.06;5060157;28;8787;-60
2020/12/23 08:46:00;;;;;;;;;2.25;1.00;19.50;74.80;;;18.44;51.24;102187.50;5057418;28;8840;-60
2020/12/23 08:48:30;;;;;;;;;1.00;0.50;19.30;74.80;;;18.42;51.45;102189.47;5052983;28;8787;-60
2020/12/23 08:51:00;;;;;;;;;1.75;1.75;19.40;74.80;;;18.39;51.38;102181.66;5067205;28;8787;-60
2020/12/23 08:53:33;;;;;;;;;1.75;1.00;19.40;74.90;;;18.36;51.26;102187.25;5054919;28;8810;-59
2020/12/23 08:56:23;;;;;;;;;1.75;1.00;19.40;74.90;;;18.33;51.56;102179.47;5063045;28;8838;-59
2020/12/23 08:59:05;;;;;;;;;1.75;1.00;19.20;74.80;;;18.30;51.39;102180.53;5093794;28;8842;-59
2020/12/23 09:01:36;;;;;;;;;1.00;1.00;19.50;75.00;;;18.27;51.57;102180.78;5054178;28;8815;-59
2020/12/23 09:04:04;;;;;;;;;1.00;0.00;19.30;74.90;;;18.23;51.64;102180.16;5056679;28;8917;-59
2020/12/23 09:06:32;;;;;;;;;1.00;1.00;19.30;74.90;;;18.22;51.74;102185.63;5063072;28;8956;-59
2020/12/23 09:09:10;;;;;;;;;0.00;0.00;19.30;75.00;;;18.18;51.47;102184.16;5037725;28;8821;-58
2020/12/23 09:11:41;;;;;;;;;1.50;1.00;19.30;74.90;;;18.16;51.54;102186.09;5048031;28;8791;-59
2020/12/23 09:14:20;;;;;;;;;0.00;0.00;19.30;74.90;;;18.13;51.75;102178.28;5043270;28;8794;-59
2020/12/23 09:17:21;;;;;;;;;1.50;1.00;19.20;75.00;;;18.08;51.78;102184.00;5056159;28;8802;-59
2020/12/23 09:20:04;;;;;;;;;0.50;0.00;19.20;74.90;;;18.06;51.74;102182.41;5038757;28;9590;-59
2020/12/23 09:22:43;;;;;;;;;1.00;0.50;19.30;75.00;;;18.03;51.88;102187.97;5048797;28;8872;-58
2020/12/23 09:25:29;;;;;;;;;1.00;1.00;19.30;75.20;;;18.02;52.08;102191.63;5051710;28;8805;-59
2020/12/23 09:28:08;;;;;;;;;0.00;0.00;19.10;75.00;;;17.99;51.88;102190.91;5054865;28;8879;-58
2020/12/23 09:30:47;;;;;;;;;0.75;0.75;19.20;75.20;;;17.99;52.03;102192.72;5054820;28;8810;-59
2020/12/23 09:33:15;;;;;;;;;0.50;0.50;19.10;75.70;;;17.95;51.97;102199.25;5055693;28;8875;-58
2020/12/23 09:35:45;;;;;;;;;1.75;1.25;19.00;75.00;;;17.92;52.15;102203.00;5050970;28;8838;-59
2020/12/23 09:38:24;;;;;;;;;0.00;0.00;19.30;75.30;;;17.90;52.28;102201.41;5046530;28;8795;-59
2020/12/23 09:40:54;;;;;;;;;0.00;0.00;19.00;75.20;;;17.89;52.24;102197.91;5054065;28;8790;-59
2020/12/23 09:43:30;;;;;;;;;0.75;0.75;18.80;75.20;;;17.86;52.35;102203.47;5050174;28;8785;-59
2020/12/23 09:46:05;;;;;;;;;0.00;0.00;18.90;75.40;;;17.84;52.35;102204.56;5050930;28;8821;-59
2020/12/23 09:48:33;;;;;;;;;1.00;0.75;19.00;75.60;;;17.82;52.49;102206.50;5034816;28;8813;-59
2020/12/23 09:51:00;;;;;;;;;1.00;1.00;18.80;75.60;;;17.79;52.39;102196.84;5081495;28;8798;-59
2020/12/23 09:53:27;;;;;;;;;0.00;0.00;18.90;75.70;;;17.76;52.41;102208.63;5046482;28;8794;-59
2020/12/23 09:55:55;;;;;;;;;1.25;0.75;18.80;75.70;;;17.75;52.35;102211.41;5037123;28;8846;-59
2020/12/23 09:58:22;;;;;;;;;0.00;0.00;18.50;75.50;;;17.72;52.61;102216.97;5055078;28;8843;-59
2020/12/23 10:00:51;;;;;;;;;0.00;0.00;18.70;75.70;;;17.70;52.54;102218.91;5054094;28;8905;-59
2020/12/23 10:03:18;;;;;;;;;0.00;0.00;18.70;75.80;;;17.68;52.55;102218.16;5044963;28;8819;-59
2020/12/23 10:05:46;;;;;;;;;2.50;0.00;18.70;75.80;;;17.66;52.69;102212.94;5044167;28;8814;-59
2020/12/23 10:08:13;;;;;;;;;0.00;0.00;18.70;75.80;;;17.65;52.57;102215.72;5050579;28;8891;-59
2020/12/23 10:10:40;;;;;;;;;2.75;0.75;18.70;75.90;;;17.61;52.66;102216.91;5051882;28;8799;-59
2020/12/23 10:13:07;;;;;;;;;0.00;0.00;18.60;75.90;;;17.60;52.81;102207.19;5051076;28;8882;-59
2020/12/23 10:15:34;;;;;;;;;0.00;0.00;18.60;75.90;;;17.59;52.83;102214.34;5047751;28;8788;-59
2020/12/23 10:18:01;;;;;;;;;0.00;0.00;18.60;75.90;;;17.54;52.78;102203.97;5050123;28;8791;-59
2020/12/23 10:20:28;;;;;;;;;0.00;0.00;18.50;75.90;;;17.54;52.76;102212.00;5045550;28;8813;-59
2020/12/23 10:22:55;;;;;;;;;0.00;0.00;18.60;76.00;;;17.52;52.89;102210.41;5050235;28;8771;-59
2020/12/23 10:25:21;;;;;;;;;0.00;0.00;18.50;76.00;;;17.50;52.89;102213.22;5046623;28;8799;-59
2020/12/23 10:27:48;;;;;;;;;0.50;0.25;18.50;76.00;;;17.50;52.92;102212.34;5051199;28;8795;-59
2020/12/23 10:30:15;;;;;;;;;0.50;0.00;18.50;76.00;;;17.48;52.91;102217.81;5038365;28;8779;-59
2020/12/23 10:32:42;;;;;;;;;0.50;0.00;18.40;76.00;;;17.45;52.92;102219.81;5060495;28;8805;-59
2020/12/23 10:35:09;;;;;;;;;0.00;0.00;18.60;76.20;;;17.44;52.88;102224.31;5038047;28;8814;-59
2020/12/23 10:37:36;;;;;;;;;0.00;0.00;18.50;76.20;;;17.40;53.06;102228.16;5059885;28;8811;-59
2020/12/23 10:40:08;;;;;;;;;0.00;0.00;18.30;76.10;;;17.40;53.05;102233.50;5039808;28;8785;-59
2020/12/23 10:42:34;;;;;;;;;0.00;0.00;18.50;76.30;;;17.39;52.95;102225.63;5050289;28;8823;-60
2020/12/23 10:45:02;;;;;;;;;0.00;0.00;18.40;76.20;;;17.37;52.99;102225.72;5059346;28;9481;-59
2020/12/23 10:47:29;;;;;;;;;0.00;0.00;18.40;76.30;;;17.36;53.07;102237.38;5044242;28;9740;-59
2020/12/23 10:49:56;;;;;;;;;0.00;0.00;18.30;76.30;;;17.33;53.07;102237.63;5052424;28;8830;-59
2020/12/23 10:52:22;;;;;;;;;0.00;0.00;18.10;76.90;;;17.32;53.08;102241.22;5051652;28;8822;-59
2020/12/23 10:54:49;;;;;;;;;0.00;0.00;18.30;76.40;;;17.30;53.14;102240.47;5034207;28;8778;-59
2020/12/23 10:57:16;;;;;;;;;0.25;0.00;18.40;76.50;;;17.29;53.09;102238.78;5052577;28;8868;-59
2020/12/23 10:59:43;;;;;;;;;0.00;0.00;18.20;76.40;;;17.26;53.11;102236.34;5045425;28;8835;-59
2020/12/23 11:02:09;;;;;;;;;0.00;0.00;18.40;76.50;;;17.26;53.16;102249.69;5048243;28;8787;-59
2020/12/23 11:04:36;;;;;;;;;0.25;0.25;18.20;76.50;;;17.24;53.19;102252.47;5060951;28;8827;-59
2020/12/23 11:07:03;;;;;;;;;0.00;0.00;18.00;76.30;;;17.23;53.21;102253.44;5061042;28;8790;-59
2020/12/23 11:09:30;;;;;;;;;0.00;0.00;18.20;76.50;;;17.22;53.13;102250.84;5056354;28;8795;-59
2020/12/23 11:11:57;;;;;;;;;0.00;0.00;18.00;76.40;;;17.20;53.30;102259.00;5049378;28;8803;-59
2020/12/23 11:14:23;;;;;;;;;0.00;0.00;18.20;76.50;;;17.19;53.28;102251.09;5053071;28;9537;-59
2020/12/23 11:16:51;;;;;;;;;0.00;0.00;18.20;76.50;;;17.18;53.06;102249.38;5052600;28;8823;-59
2020/12/23 11:19:18;;;;;;;;;0.00;0.00;18.20;76.50;;;17.17;53.30;102250.31;5047711;28;8815;-60
2020/12/23 11:21:46;;;;;;;;;0.00;0.00;18.10;76.40;;;17.14;53.32;102244.22;5052875;28;8776;-59
2020/12/23 11:24:13;;;;;;;;;0.00;0.00;18.20;76.40;;;17.14;53.24;102252.25;5063406;28;8805;-59